createdAt,value
2022-08-05T00:01:36.176Z,18.84
2022-08-05T00:04:17.660Z,18.75
2022-08-05T00:06:51.802Z,18.70
2022-08-05T00:09:20.328Z,18.61
2022-08-05T00:11:55.880Z,18.77
2022-08-05T00:14:29.150Z,18.76
2022-08-05T00:17:02.080Z,18.61
2022-08-05T00:19:33.241Z,18.48
2022-08-05T00:22:04.239Z,18.43
2022-08-05T00:24:32.776Z,18.60
2022-08-05T00:27:04.724Z,18.47
2022-08-05T00:29:39.111Z,18.34
2022-08-05T00:32:12.362Z,18.34
2022-08-05T00:35:03.807Z,18.27
2022-08-05T00:37:51.358Z,18.18
2022-08-05T00:40:27.408Z,18.36
2022-08-05T00:42:57.976Z,18.22
2022-08-05T00:45:38.951Z,18.12
2022-08-05T00:48:11.574Z,18.02
2022-08-05T00:50:42.061Z,17.97
2022-08-05T00:54:01.140Z,17.95
2022-08-05T00:56:08.438Z,18.00
2022-08-05T00:58:36.937Z,18.00
2022-08-05T01:01:08.664Z,18.02
2022-08-05T01:03:37.520Z,17.72
2022-08-05T01:06:05.786Z,18.05
2022-08-05T01:08:44.681Z,18.27
2022-08-05T01:11:22.204Z,18.06
2022-08-05T01:14:08.567Z,18.13
2022-08-05T01:16:41.802Z,18.05
2022-08-05T01:19:46.225Z,18.03
2022-08-05T01:22:27.982Z,18.10
2022-08-05T01:25:39.924Z,18.08
2022-08-05T01:28:33.172Z,18.12
2022-08-05T01:31:05.766Z,18.13
2022-08-05T01:33:40.771Z,18.15
2022-08-05T01:36:16.216Z,18.15
2022-08-05T01:38:48.441Z,18.09
2022-08-05T01:41:21.840Z,18.11
2022-08-05T01:43:52.430Z,18.14
2022-08-05T01:46:42.417Z,18.12
2022-08-05T01:49:23.933Z,18.11
2022-08-05T01:51:58.755Z,18.08
2022-08-05T01:54:33.254Z,18.09
2022-08-05T01:58:11.648Z,18.07
2022-08-05T01:59:57.946Z,18.15
2022-08-05T02:02:29.965Z,18.15
2022-08-05T02:05:01.247Z,18.12
2022-08-05T02:07:31.918Z,18.44
2022-08-05T02:10:02.120Z,18.32
2022-08-05T02:12:35.970Z,18.33
2022-08-05T02:15:12.354Z,18.47
2022-08-05T02:18:31.484Z,18.36
2022-08-05T02:20:41.666Z,18.27
2022-08-05T02:23:13.519Z,18.49
2022-08-05T02:25:49.848Z,18.22
2022-08-05T02:28:28.395Z,18.26
2022-08-05T02:31:07.531Z,18.39
2022-08-05T02:33:40.736Z,18.35
2022-08-05T02:36:13.751Z,18.29
2022-08-05T02:38:53.636Z,18.21
2022-08-05T02:41:28.561Z,18.25
2022-08-05T02:44:13.096Z,18.21
2022-08-05T02:46:58.909Z,18.16
2022-08-05T02:49:36.411Z,18.23
2022-08-05T02:52:09.209Z,18.30
2022-08-05T02:54:41.062Z,18.37
2022-08-05T02:58:11.605Z,18.38
2022-08-05T03:00:01.592Z,18.35
2022-08-05T03:02:35.909Z,18.35
2022-08-05T03:05:05.273Z,18.37
2022-08-05T03:07:59.133Z,18.36
2022-08-05T03:10:25.229Z,18.42
2022-08-05T03:12:54.289Z,18.43
2022-08-05T03:15:24.155Z,18.46
2022-08-05T03:17:55.861Z,18.42
2022-08-05T03:20:25.050Z,18.46
2022-08-05T03:22:57.063Z,18.56
2022-08-05T03:26:02.652Z,18.80
2022-08-05T03:28:18.704Z,18.63
2022-08-05T03:30:49.433Z,18.77
2022-08-05T03:33:19.540Z,18.75
2022-08-05T03:35:49.891Z,18.76
2022-08-05T03:38:32.916Z,18.77
2022-08-05T03:41:10.979Z,18.78
2022-08-05T03:44:09.068Z,18.91
2022-08-05T03:46:30.060Z,18.93
2022-08-05T03:49:02.218Z,18.92
2022-08-05T03:52:49.413Z,18.83
2022-08-05T03:55:34.740Z,18.94
2022-08-05T03:57:41.150Z,18.82
2022-08-05T04:00:15.587Z,18.96
2022-08-05T04:02:57.578Z,18.94
2022-08-05T04:05:33.800Z,18.92
2022-08-05T04:08:05.695Z,18.88
2022-08-05T04:10:44.835Z,18.86
2022-08-05T04:13:13.217Z,18.96
2022-08-05T04:15:52.737Z,18.92
2022-08-05T04:18:30.099Z,18.91
2022-08-05T04:20:59.616Z,18.96
2022-08-05T04:23:57.204Z,19.05
2022-08-05T04:26:18.810Z,18.99
2022-08-05T04:28:50.811Z,19.02
2022-08-05T04:31:21.088Z,19.04
2022-08-05T04:33:54.438Z,19.17
2022-08-05T04:36:49.915Z,18.91
2022-08-05T04:39:18.701Z,18.92
2022-08-05T04:41:48.160Z,18.99
2022-08-05T04:44:29.651Z,19.05
2022-08-05T04:46:59.135Z,18.90
2022-08-05T04:50:01.080Z,18.87
2022-08-05T04:52:34.568Z,18.83
2022-08-05T04:55:14.303Z,18.72
2022-08-05T04:57:47.716Z,18.86
2022-08-05T05:00:17.486Z,18.73
2022-08-05T05:02:45.480Z,18.86
2022-08-05T05:05:26.016Z,18.83
2022-08-05T05:08:02.122Z,18.96
2022-08-05T05:10:33.263Z,18.89
2022-08-05T05:13:04.710Z,18.95
2022-08-05T05:16:01.786Z,18.93
2022-08-05T05:18:31.601Z,18.77
2022-08-05T05:21:07.318Z,18.86
2022-08-05T05:24:02.271Z,18.96
2022-08-05T05:26:32.810Z,18.96
2022-08-05T05:29:02.605Z,19.02
2022-08-05T05:31:41.894Z,19.05
2022-08-05T05:34:15.525Z,18.85
2022-08-05T05:36:47.060Z,18.96
2022-08-05T05:39:19.127Z,18.85
2022-08-05T05:41:54.558Z,18.97
2022-08-05T05:44:36.777Z,19.06
2022-08-05T05:47:21.370Z,19.00
2022-08-05T05:49:56.579Z,19.24
2022-08-05T05:52:28.446Z,19.34
2022-08-05T05:55:01.814Z,19.32
2022-08-05T05:57:43.023Z,19.39
2022-08-05T06:00:27.716Z,19.56
2022-08-05T06:03:01.645Z,19.75
2022-08-05T06:05:29.834Z,19.68
2022-08-05T06:08:01.962Z,19.97
2022-08-05T06:10:36.636Z,20.13
2022-08-05T06:13:08.108Z,20.15
2022-08-05T06:16:28.241Z,20.25
2022-08-05T06:18:30.960Z,20.39
2022-08-05T06:21:00.030Z,20.38
2022-08-05T06:23:43.790Z,20.34
2022-08-05T06:26:21.705Z,20.38
2022-08-05T06:28:55.999Z,20.29
2022-08-05T06:31:30.400Z,20.35
2022-08-05T06:34:07.279Z,20.63
2022-08-05T06:36:58.030Z,20.66
2022-08-05T06:39:27.733Z,20.53
2022-08-05T06:41:59.142Z,20.80
2022-08-05T06:44:27.746Z,20.63
2022-08-05T06:46:56.214Z,20.85
2022-08-05T06:50:00.552Z,20.89
2022-08-05T06:52:38.164Z,21.16
2022-08-05T06:55:02.529Z,21.33
2022-08-05T06:58:02.844Z,21.50
2022-08-05T07:00:22.475Z,21.76
2022-08-05T07:02:56.505Z,21.71
2022-08-05T07:05:31.878Z,21.81
2022-08-05T07:08:06.476Z,22.05
2022-08-05T07:10:52.952Z,22.04
2022-08-05T07:13:57.946Z,22.18
2022-08-05T07:18:01.836Z,22.32
2022-08-05T07:22:29.134Z,22.60
2022-08-05T07:25:22.995Z,22.70
2022-08-05T07:27:58.853Z,22.89
2022-08-05T07:30:33.709Z,22.89
2022-08-05T07:33:08.811Z,22.90
2022-08-05T07:36:03.728Z,23.01
2022-08-05T07:38:33.871Z,23.16
2022-08-05T07:42:08.865Z,23.37
2022-08-05T07:43:59.982Z,23.49
2022-08-05T07:46:31.749Z,23.45
2022-08-05T07:49:05.755Z,23.68
2022-08-05T07:51:48.886Z,23.85
2022-08-05T07:54:30.980Z,23.98
2022-08-05T07:57:17.576Z,24.10
2022-08-05T07:59:51.512Z,24.32
2022-08-05T08:02:26.720Z,24.45
2022-08-05T08:05:02.892Z,24.53
2022-08-05T08:07:39.772Z,24.47
2022-08-05T08:10:20.905Z,24.75
2022-08-05T08:12:49.962Z,24.72
2022-08-05T08:15:18.222Z,24.81
2022-08-05T08:18:14.418Z,25.23
2022-08-05T08:21:02.410Z,25.53
2022-08-05T08:24:03.053Z,25.77
2022-08-05T08:26:29.555Z,25.80
2022-08-05T08:29:22.296Z,26.01
2022-08-05T08:31:49.077Z,25.93
2022-08-05T08:34:30.350Z,25.61
2022-08-05T08:37:53.505Z,25.86
2022-08-05T08:40:34.721Z,25.53
2022-08-05T08:45:17.126Z,25.70
2022-08-05T08:45:55.954Z,25.99
2022-08-05T08:48:41.677Z,25.89
2022-08-05T08:52:01.669Z,26.13
2022-08-05T08:54:09.626Z,26.24
2022-08-05T08:56:47.798Z,26.46
2022-08-05T08:59:20.905Z,26.52
2022-08-05T09:01:57.238Z,26.77
2022-08-05T09:04:30.350Z,26.94
2022-08-05T09:07:00.403Z,27.10
2022-08-05T09:09:35.365Z,27.10
2022-08-05T09:12:14.416Z,27.05
2022-08-05T09:14:58.017Z,27.07
2022-08-05T09:17:42.591Z,27.09
2022-08-05T09:20:20.818Z,27.31
2022-08-05T09:23:22.105Z,27.55
2022-08-05T09:26:02.329Z,27.53
2022-08-05T09:28:34.310Z,27.54
2022-08-05T09:31:22.230Z,27.75
2022-08-05T09:33:56.614Z,27.86
2022-08-05T09:36:27.803Z,27.88
2022-08-05T09:39:18.125Z,28.06
2022-08-05T09:41:58.575Z,28.13
2022-08-05T09:44:37.963Z,27.89
2022-08-05T09:47:12.515Z,28.13
2022-08-05T09:50:01.185Z,28.22
2022-08-05T09:52:32.930Z,28.22
2022-08-05T09:55:06.250Z,28.22
2022-08-05T09:57:54.772Z,28.41
2022-08-05T10:00:26.805Z,28.39
2022-08-05T10:02:58.499Z,28.54
2022-08-05T10:05:29.264Z,28.57
2022-08-05T10:08:35.142Z,28.91
2022-08-05T10:10:54.259Z,29.16
2022-08-05T10:13:46.283Z,29.12
2022-08-05T10:16:34.190Z,28.95
2022-08-05T10:19:09.148Z,28.78
2022-08-05T10:21:39.982Z,28.45
2022-08-05T10:24:13.261Z,28.34
2022-08-05T10:26:49.205Z,28.14
2022-08-05T10:29:24.134Z,27.76
2022-08-05T10:32:52.646Z,27.61
2022-08-05T10:35:02.333Z,27.17
2022-08-05T10:37:40.285Z,26.84
2022-08-05T10:40:28.053Z,26.77
2022-08-05T10:57:38.722Z,27.58
2022-08-05T11:00:24.219Z,27.56
2022-08-05T11:03:23.134Z,27.39
2022-08-05T11:06:15.913Z,27.29
2022-08-05T11:09:32.285Z,27.13
2022-08-05T11:12:55.178Z,26.95
2022-08-05T11:15:59.201Z,26.49
2022-08-05T11:18:30.141Z,26.38
2022-08-05T11:21:02.653Z,26.16
2022-08-05T11:24:03.129Z,25.88
2022-08-05T11:26:28.299Z,25.66
2022-08-05T11:29:12.700Z,25.51
2022-08-05T11:31:54.478Z,24.86
2022-08-05T11:34:51.739Z,24.81
2022-08-05T11:38:28.946Z,24.53
2022-08-05T11:41:35.061Z,24.39
2022-08-05T11:44:05.606Z,24.52
2022-08-05T11:46:37.857Z,24.33
2022-08-05T11:49:27.822Z,24.13
2022-08-05T11:51:57.602Z,24.07
2022-08-05T11:54:34.526Z,24.16
2022-08-05T11:57:08.062Z,24.14
2022-08-05T11:59:53.320Z,23.95
2022-08-05T12:02:30.561Z,24.15
2022-08-05T12:05:06.774Z,24.20
2022-08-05T12:08:09.492Z,24.04
2022-08-05T12:10:38.542Z,23.93
2022-08-05T12:13:47.873Z,23.81
2022-08-05T12:16:18.966Z,23.89
2022-08-05T12:18:48.994Z,23.81
2022-08-05T12:21:38.937Z,23.87
2022-08-05T12:24:17.381Z,23.58
2022-08-05T12:26:48.634Z,23.52
2022-08-05T12:29:25.204Z,23.62
2022-08-05T12:32:02.257Z,23.37
2022-08-05T12:34:33.944Z,23.13
2022-08-05T12:37:16.951Z,23.12
2022-08-05T12:39:52.113Z,23.01
2022-08-05T12:42:25.135Z,23.05
2022-08-05T12:45:03.954Z,22.79
2022-08-05T12:47:43.522Z,22.61
2022-08-05T12:50:27.621Z,22.53
2022-08-05T12:53:00.559Z,22.25
2022-08-05T12:55:32.607Z,21.94
2022-08-05T12:58:48.202Z,21.56
2022-08-05T13:02:00.257Z,21.16
2022-08-05T13:03:43.279Z,20.81
2022-08-05T13:06:19.882Z,20.29
2022-08-05T13:08:52.628Z,20.49
2022-08-05T13:12:03.056Z,20.19
2022-08-05T13:14:24.808Z,20.21
2022-08-05T13:17:04.672Z,20.13
2022-08-05T13:19:52.149Z,20.13
2022-08-05T13:22:28.263Z,20.26
2022-08-05T13:25:05.871Z,20.16
2022-08-05T13:27:40.963Z,20.18
2022-08-05T13:30:34.415Z,20.14
2022-08-05T13:33:01.540Z,20.14
2022-08-05T13:35:43.101Z,20.04
2022-08-05T13:38:30.636Z,20.03
2022-08-05T13:41:05.003Z,20.00
2022-08-05T13:43:43.382Z,19.92
2022-08-05T13:46:16.552Z,20.06
2022-08-05T13:49:05.477Z,20.05
2022-08-05T13:51:41.010Z,20.15
2022-08-05T13:54:15.463Z,20.32
2022-08-05T13:56:52.061Z,20.27
2022-08-05T13:59:24.217Z,20.32
2022-08-05T14:01:58.979Z,20.07
2022-08-05T14:04:49.933Z,20.19
2022-08-05T14:07:25.727Z,20.20
2022-08-05T14:10:12.327Z,20.34
2022-08-05T14:12:43.079Z,20.22
2022-08-05T14:16:07.759Z,20.30
2022-08-05T14:18:15.232Z,20.08
2022-08-05T14:20:54.918Z,20.28
2022-08-05T14:23:25.681Z,20.32
2022-08-05T14:25:58.209Z,20.18
2022-08-05T14:28:29.900Z,20.19
2022-08-05T14:30:59.830Z,20.27
2022-08-05T14:33:32.442Z,20.36
2022-08-05T14:36:21.368Z,20.35
2022-08-05T14:38:50.367Z,20.24
2022-08-05T14:41:18.587Z,20.05
2022-08-05T14:43:59.215Z,20.15
2022-08-05T14:46:31.578Z,20.18
2022-08-05T14:49:56.302Z,20.07
2022-08-05T14:52:42.939Z,20.12
2022-08-05T14:55:13.961Z,20.06
2022-08-05T14:57:55.962Z,19.84
2022-08-05T15:00:34.702Z,19.85
2022-08-05T15:03:03.149Z,20.05
2022-08-05T15:06:07.803Z,19.95
2022-08-05T15:09:01.295Z,19.97
2022-08-05T15:11:52.264Z,20.14
2022-08-05T15:14:35.680Z,20.27
2022-08-05T15:17:44.342Z,20.00
2022-08-05T15:19:59.651Z,20.22
2022-08-05T15:22:31.808Z,19.95
2022-08-05T15:25:00.423Z,20.01
2022-08-05T15:27:54.798Z,19.82
2022-08-05T15:30:32.426Z,19.99
2022-08-05T15:33:56.940Z,19.97
2022-08-05T15:36:06.233Z,19.88
2022-08-05T15:38:46.943Z,19.97
2022-08-05T15:41:58.484Z,20.02
2022-08-05T15:44:45.703Z,20.26
2022-08-05T15:47:27.272Z,20.24
2022-08-05T15:50:09.423Z,20.17
2022-08-05T15:53:51.147Z,20.04
2022-08-05T23:24:57.832Z,15.33
2022-08-05T23:27:31.554Z,15.04
2022-08-05T23:30:14.865Z,15.08
2022-08-05T23:32:45.336Z,15.11
2022-08-05T23:35:13.907Z,14.87
2022-08-05T23:37:43.901Z,14.93
2022-08-05T23:40:13.748Z,14.94
2022-08-05T23:42:47.475Z,14.97
2022-08-05T23:45:23.645Z,14.86
2022-08-05T23:47:53.897Z,14.78
2022-08-05T23:50:31.748Z,14.78
2022-08-05T23:53:00.909Z,14.74
2022-08-05T23:55:32.916Z,14.70
2022-08-05T23:58:01.156Z,14.49
